Thunder Bay Airport
CYQT : now visible

Airfield :











YOU CAN JOIN US ON...

 
LOGIN :

Register | Disclaimer

   EN    FR    IT 

 









Legend :    VFR   Marginal VFR   IFR   Intensive IFR   Very Intensive IFR
Visi :
Ceiling :
>= 8 km
>= 3000ft
5 to 8 km
1000 to 3000 ft
1500m to 5 km
500 to 1000 ft
800 to 1500m
200 to 500 ft
< 800m
< 200 ft
Symbols :   Thunderstorms  Fog  Heavy snow  Heavy precipitations  Wind > 20 kt






- Airport Elevation : 653 ft
- IATA code : YQT


CYQT - Thunder Bay

CURRENT METAR :
  • 072100Z 18011G16KT 20SM FEW041 SCT080 BKN260 26/16 A2998 RMK SC2AC1CI2 SLP155 DENSITY ALT 2100FT

EXPIRED METARs :
  • 072000Z 19014G20KT 20SM FEW050 BKN250 26/15 A2998 RMK SC1CI5 SLP153 DENSITY ALT 2100FT
  • 071900Z 19013KT 20SM FEW045 SCT085 BKN160 26/15 A3000 RMK SC1AC2AC3 SLP161 DENSITY ALT 2000FT

TAF TAF CYQT
Valid from the 07 at 20:00 until the 08 at 08:00 UTC


071938Z 0720/0808 17012KT P6SM SCT050
TEMPO 0720/0806 BKN050
FM080600 20008KT P6SM BKN015
PROB30 0807/0808 2SM TSRA BR OVC015CB RMK NXT FCST BY 080200Z
CZWG FIR / North America



MET'MAP, your aeronautical weather chart ! - Copyright ORBIFLY December 2007 - Disclaimer

ORBIFLY MET'MAP TEAM :

Programming & Development : Alexandra Zaïnal
Concept & original design : Baudouin d'Aumeries
Assistance for programming : Marc-Olivier Méhu
Technical & hardware support : Manuel Goepfert

Contact : metmap@orbifly.com




SOURCES & CREDITS :

   NOAA       Earth
Advisory